Terminal Aerodrome Forecast
Issued by NWS Missoula, MT

Home | Current Version | Previous Version | Text Only | Print | Product List | Glossary On
Versions: 1 2 3 4 5 6 7 8 9 10 11 12 13
000
FTUS45 KMSO 160531
TAFBTM
TAF
KBTM 160531Z 1606/1706 16007KT P6SM SKC
     FM162200 30009KT P6SM BKN080
     FM170200 VRB02KT P6SM BKN080=

USA.gov is the U.S. government's official web portal to all federal, state and local government web resources and services.